Time;durP1;ratioP1;P1;durP2;ratioP2;P2;SDS_P1;SDS_P2;PMS_P1;PMS_P2;Temp;Humidity;BMP_temperature;BMP_pressure;BME280_temperature;BME280_humidity;BME280_pressure;Samples;Min_cycle;Max_cycle;Signal;HPM_P1;HPM_P2
2022/07/17 00:01:52;;;;;;;5.93;1.40;;;;;;;11.70;85.93;102355.78;4991300;28;20193;-47
2022/07/17 00:04:17;;;;;;;4.40;1.40;;;;;;;11.63;85.98;102351.41;4991626;28;20244;-50
2022/07/17 00:06:43;;;;;;;5.60;1.42;;;;;;;11.63;86.44;102343.34;4991715;28;20523;-49
2022/07/17 00:09:09;;;;;;;5.78;1.60;;;;;;;11.86;85.64;102338.44;4991270;28;20208;-49
2022/07/17 00:11:34;;;;;;;5.13;1.48;;;;;;;11.60;85.27;102346.97;4991627;28;20177;-46
2022/07/17 00:13:59;;;;;;;3.53;1.10;;;;;;;11.52;85.92;102344.44;4991088;28;20285;-50
2022/07/17 00:16:25;;;;;;;3.30;1.38;;;;;;;11.54;86.61;102348.00;4991412;28;20166;-46
2022/07/17 00:18:51;;;;;;;2.30;1.40;;;;;;;11.70;86.21;102331.59;4973037;28;20343;-48
2022/07/17 00:21:16;;;;;;;8.15;2.38;;;;;;;11.55;86.01;102344.38;4991135;28;20157;-49
2022/07/17 00:23:42;;;;;;;2.35;1.33;;;;;;;11.66;86.06;102351.38;4991114;28;20359;-46
2022/07/17 00:26:07;;;;;;;6.45;1.48;;;;;;;11.62;86.62;102352.34;4990890;28;20169;-48
2022/07/17 00:28:33;;;;;;;5.25;1.67;;;;;;;11.52;86.87;102354.28;4991166;28;20189;-47
2022/07/17 00:30:58;;;;;;;5.65;1.80;;;;;;;11.46;87.70;102360.66;4990887;28;20221;-48
2022/07/17 00:33:24;;;;;;;6.00;2.00;;;;;;;11.53;87.97;102354.25;4990792;28;20175;-48
2022/07/17 00:35:49;;;;;;;6.20;1.70;;;;;;;11.41;88.37;102361.63;4989732;28;20173;-48
2022/07/17 00:38:15;;;;;;;3.00;1.55;;;;;;;11.33;89.22;102349.25;4990643;28;20182;-46
2022/07/17 00:40:41;;;;;;;6.30;1.30;;;;;;;11.42;89.20;102345.53;4990802;28;20169;-48
2022/07/17 00:43:06;;;;;;;6.72;2.08;;;;;;;11.26;89.67;102352.03;4989981;28;20205;-48
2022/07/17 00:45:32;;;;;;;4.25;1.77;;;;;;;11.38;89.55;102349.16;4990375;28;20204;-48
2022/07/17 00:48:03;;;;;;;7.25;1.83;;;;;;;11.38;89.58;102345.59;4973479;28;20177;-47
2022/07/17 00:50:35;;;;;;;4.07;1.38;;;;;;;11.43;89.63;102349.97;4990742;28;20202;-47
2022/07/17 00:53:00;;;;;;;7.82;2.17;;;;;;;11.33;89.84;102346.56;4990192;28;20177;-48
2022/07/17 00:55:26;;;;;;;2.80;1.33;;;;;;;11.45;90.05;102342.75;4990546;28;20173;-47
2022/07/17 00:57:54;;;;;;;5.40;1.77;;;;;;;11.37;89.77;102342.03;4990446;28;20177;-48
2022/07/17 01:00:21;;;;;;;3.85;1.45;;;;;;;11.32;89.58;102336.72;4990523;28;20284;-48
2022/07/17 01:02:52;;;;;;;3.67;1.77;;;;;;;11.40;89.84;102336.59;4990387;28;20233;-47
2022/07/17 01:05:18;;;;;;;6.00;1.50;;;;;;;11.41;90.14;102349.09;4990227;28;20204;-50
2022/07/17 01:07:44;;;;;;;5.47;1.92;;;;;;;11.20;90.21;102336.06;4990256;28;20185;-48
2022/07/17 01:10:11;;;;;;;4.13;1.95;;;;;;;11.11;90.81;102348.72;4990522;28;20211;-48
2022/07/17 01:12:36;;;;;;;3.65;1.52;;;;;;;11.17;91.37;102353.06;4990382;28;20209;-48
2022/07/17 01:15:04;;;;;;;5.80;2.03;;;;;;;11.28;91.35;102344.84;4989680;28;20177;-47
2022/07/17 01:17:30;;;;;;;4.93;1.70;;;;;;;11.06;91.63;102350.59;4990358;28;20173;-48
2022/07/17 01:19:56;;;;;;;5.97;1.45;;;;;;;11.11;92.36;102353.19;4990065;28;20273;-48
2022/07/17 01:22:21;;;;;;;6.40;1.65;;;;;;;11.04;92.26;102348.81;4990373;28;20189;-49
2022/07/17 01:24:47;;;;;;;4.05;1.70;;;;;;;11.06;92.44;102345.22;4989763;28;20245;-47
2022/07/17 01:27:12;;;;;;;8.70;1.83;;;;;;;11.07;92.45;102347.00;4989912;28;20182;-47
2022/07/17 01:29:39;;;;;;;5.22;1.40;;;;;;;11.13;92.39;102344.22;4990999;28;20205;-48
2022/07/17 01:32:05;;;;;;;3.90;1.58;;;;;;;11.19;92.27;102350.38;4993830;28;20209;-46
2022/07/17 01:34:31;;;;;;;6.93;1.90;;;;;;;11.17;91.97;102341.47;4976448;28;20173;-48
2022/07/17 01:36:57;;;;;;;6.90;1.85;;;;;;;11.04;92.41;102349.72;4994023;28;20161;-49
2022/07/17 01:39:52;;;;;;;7.97;2.35;;;;;;;10.94;92.99;102350.78;4988817;28;20714;-49
2022/07/17 01:42:09;;;;;;;5.85;1.67;;;;;;;10.98;93.15;102344.47;4990538;28;20241;-49
2022/07/17 01:44:35;;;;;;;5.90;1.70;;;;;;;11.09;93.42;102345.16;4993068;28;20244;-49
2022/07/17 01:47:00;;;;;;;5.68;1.98;;;;;;;11.10;93.20;102349.59;4994069;28;20176;-47
2022/07/17 01:49:26;;;;;;;3.63;1.60;;;;;;;11.08;92.89;102356.78;4993345;28;20193;-47
2022/07/17 01:51:51;;;;;;;6.55;1.83;;;;;;;10.95;93.19;102351.66;4993889;28;20201;-47
2022/07/17 01:54:17;;;;;;;6.70;2.00;;;;;;;10.96;93.43;102348.97;4975801;28;20675;-49
2022/07/17 01:56:42;;;;;;;5.72;1.73;;;;;;;11.02;93.42;102358.69;4993091;28;20254;-48
2022/07/17 01:59:08;;;;;;;8.40;1.88;;;;;;;11.09;93.26;102353.22;4993378;28;20196;-46
2022/07/17 02:01:37;;;;;;;5.97;1.55;;;;;;;11.10;92.87;102365.69;4993541;28;20177;-47
2022/07/17 02:04:02;;;;;;;5.78;2.08;;;;;;;11.10;92.88;102360.34;4993128;28;20204;-49
2022/07/17 02:06:28;;;;;;;4.25;1.50;;;;;;;11.09;93.22;102372.00;4993872;28;20182;-47
2022/07/17 02:08:53;;;;;;;4.53;1.70;;;;;;;11.11;92.90;102370.19;4993371;28;20591;-49
2022/07/17 02:11:19;;;;;;;6.82;2.00;;;;;;;11.12;93.11;102371.94;4975950;28;20188;-48
2022/07/17 02:13:44;;;;;;;7.82;1.60;;;;;;;11.04;92.67;102360.47;4992842;28;20276;-48
2022/07/17 02:16:09;;;;;;;8.93;1.90;;;;;;;11.19;93.18;102371.84;4993426;28;20181;-47
2022/07/17 02:18:35;;;;;;;5.25;1.95;;;;;;;11.16;92.80;102362.06;4992988;28;20204;-46
2022/07/17 02:21:01;;;;;;;5.95;1.73;;;;;;;11.11;93.13;102363.94;4993212;28;20181;-47
2022/07/17 02:23:28;;;;;;;6.93;1.92;;;;;;;11.20;93.20;102381.69;4992372;28;20211;-47
2022/07/17 02:25:54;;;;;;;5.80;1.67;;;;;;;11.28;92.95;102383.34;4993273;28;20193;-46
2022/07/17 02:28:20;;;;;;;5.68;1.70;;;;;;;11.33;92.57;102380.56;4992936;28;20182;-47
2022/07/17 02:30:46;;;;;;;5.55;2.22;;;;;;;11.27;92.96;102389.59;4993175;28;20237;-49
2022/07/17 02:33:11;;;;;;;4.82;1.60;;;;;;;11.39;93.08;102375.09;4992092;28;20181;-46
2022/07/17 02:35:37;;;;;;;6.50;2.00;;;;;;;11.44;92.75;102373.22;4993145;28;20690;-47
2022/07/17 02:38:02;;;;;;;7.18;1.67;;;;;;;11.52;92.42;102378.44;4992850;28;20197;-49
2022/07/17 02:40:28;;;;;;;5.95;1.90;;;;;;;11.50;92.12;102378.47;4992799;28;20185;-47
2022/07/17 02:42:53;;;;;;;5.55;1.85;;;;;;;11.42;91.88;102384.91;4991638;28;20227;-47
2022/07/17 02:45:24;;;;;;;8.38;1.60;;;;;;;11.37;92.11;102387.66;4992634;28;20185;-47
2022/07/17 02:47:50;;;;;;;6.60;1.75;;;;;;;11.39;92.16;102385.84;4992797;28;20212;-46
2022/07/17 02:50:16;;;;;;;5.05;1.60;;;;;;;11.34;92.27;102399.31;4992365;28;20208;-46
2022/07/17 02:52:43;;;;;;;6.93;1.92;;;;;;;11.37;92.28;102400.16;4992768;28;20185;-46
2022/07/17 02:55:09;;;;;;;5.53;1.40;;;;;;;11.29;92.16;102405.66;4992103;28;20193;-48
2022/07/17 02:57:36;;;;;;;5.07;2.10;;;;;;;11.31;92.34;102395.81;5007456;28;20177;-48
2022/07/17 03:00:04;;;;;;;5.78;1.60;;;;;;;11.20;92.31;102397.78;4991876;28;20209;-48
2022/07/17 03:02:30;;;;;;;6.82;1.70;;;;;;;11.21;92.22;102386.13;4974480;28;20230;-47
2022/07/17 03:04:55;;;;;;;6.00;1.83;;;;;;;11.15;92.24;102387.13;4991904;28;20241;-45
2022/07/17 03:07:22;;;;;;;4.57;1.67;;;;;;;11.16;92.80;102391.56;4991821;28;20594;-48
2022/07/17 03:09:47;;;;;;;9.65;2.10;;;;;;;11.09;92.67;102387.22;4992002;28;20232;-50
2022/07/17 03:12:13;;;;;;;4.78;1.65;;;;;;;11.23;92.68;102384.28;4992127;28;20260;-50
2022/07/17 03:14:38;;;;;;;7.18;1.90;;;;;;;11.10;92.60;102381.78;4991295;28;20169;-49
2022/07/17 03:17:03;;;;;;;4.70;1.55;;;;;;;11.26;92.86;102377.09;4991872;28;20184;-48
2022/07/17 03:19:29;;;;;;;5.88;1.75;;;;;;;11.26;92.74;102379.78;4991502;28;20197;-49
2022/07/17 03:21:54;;;;;;;4.97;1.52;;;;;;;11.23;92.64;102378.94;4991916;28;20770;-48
2022/07/17 03:24:20;;;;;;;7.43;1.65;;;;;;;11.18;93.03;102381.69;4991232;28;20201;-49
2022/07/17 03:26:45;;;;;;;5.35;1.80;;;;;;;11.12;92.99;102382.66;4991214;28;20181;-47
2022/07/17 03:29:11;;;;;;;4.07;1.80;;;;;;;11.22;93.09;102380.75;4974263;28;20201;-48
2022/07/17 03:31:36;;;;;;;6.72;2.15;;;;;;;11.31;92.93;102379.69;4991177;28;20173;-49
2022/07/17 03:34:02;;;;;;;7.28;2.00;;;;;;;11.22;92.42;102375.38;4991109;28;20281;-45
2022/07/17 03:36:27;;;;;;;3.63;1.48;;;;;;;11.20;92.84;102377.19;4991643;28;20165;-46
2022/07/17 03:38:53;;;;;;;3.97;1.42;;;;;;;11.23;92.98;102376.25;4991498;28;20201;-45
2022/07/17 03:41:18;;;;;;;4.97;1.58;;;;;;;11.21;92.93;102388.81;4988265;28;20659;-47
2022/07/17 03:43:44;;;;;;;9.23;2.00;;;;;;;11.30;93.04;102386.88;4987821;28;20639;-47
2022/07/17 03:46:09;;;;;;;8.65;1.67;;;;;;;11.37;92.41;102387.66;4991228;28;20186;-46
2022/07/17 03:48:36;;;;;;;3.92;1.40;;;;;;;11.39;92.69;102390.28;4987487;28;20227;-47
2022/07/17 03:51:02;;;;;;;4.47;1.70;;;;;;;11.35;92.54;102394.84;4990531;28;20268;-47
2022/07/17 03:53:27;;;;;;;6.57;2.05;;;;;;;11.43;92.13;102387.53;4973102;28;20280;-47
2022/07/17 03:55:52;;;;;;;7.35;1.80;;;;;;;11.45;91.90;102390.19;4973469;28;20277;-45
2022/07/17 03:58:18;;;;;;;5.70;2.00;;;;;;;11.49;91.98;102386.56;4991164;28;20173;-46
2022/07/17 04:00:43;;;;;;;7.32;1.67;;;;;;;11.57;91.83;102391.78;4991716;28;20177;-48
2022/07/17 04:03:09;;;;;;;5.13;1.50;;;;;;;11.47;91.81;102399.13;4990528;28;20265;-47
2022/07/17 04:05:34;;;;;;;8.10;2.53;;;;;;;11.42;91.69;102401.00;4991491;28;20660;-46
2022/07/17 04:08:00;;;;;;;5.43;1.50;;;;;;;11.38;91.70;102396.59;4973556;28;20708;-48
2022/07/17 04:10:25;;;;;;;6.65;2.00;;;;;;;11.46;91.96;102398.22;4991046;28;20666;-46
2022/07/17 04:12:51;;;;;;;8.02;2.22;;;;;;;11.57;91.76;102398.06;4991278;28;20649;-46
2022/07/17 04:15:48;;;;;;;3.90;1.52;;;;;;;11.48;92.04;102390.16;4990139;28;20212;-48
2022/07/17 04:18:02;;;;;;;4.70;1.90;;;;;;;11.48;92.18;102407.16;4991058;28;20185;-47
2022/07/17 04:20:28;;;;;;;6.20;1.45;;;;;;;11.50;91.82;102401.72;4990633;28;20201;-48
2022/07/17 04:22:54;;;;;;;6.65;1.52;;;;;;;11.42;92.32;102401.00;4973273;28;20205;-48
2022/07/17 04:25:19;;;;;;;4.85;1.50;;;;;;;11.41;92.61;102399.22;4990690;28;20569;-46
2022/07/17 04:27:45;;;;;;;6.82;1.80;;;;;;;11.53;92.86;102402.56;4990981;28;20632;-47
2022/07/17 04:30:11;;;;;;;4.40;1.52;;;;;;;11.52;92.44;102399.91;4973786;28;20696;-46
2022/07/17 04:32:36;;;;;;;4.38;1.45;;;;;;;11.60;92.47;102402.47;4990587;28;20228;-47
2022/07/17 04:35:02;;;;;;;7.22;1.85;;;;;;;11.65;92.26;102389.84;4990689;28;20185;-48
2022/07/17 04:37:28;;;;;;;6.97;1.55;;;;;;;11.70;92.17;102385.31;4990867;28;20581;-48
2022/07/17 04:39:53;;;;;;;6.75;1.80;;;;;;;11.74;92.28;102376.25;4990967;28;20906;-47
2022/07/17 04:42:19;;;;;;;4.35;1.80;;;;;;;11.80;92.47;102386.00;4990356;28;20217;-47
2022/07/17 04:44:44;;;;;;;5.70;1.80;;;;;;;11.85;92.25;102374.28;4990190;28;20318;-47
2022/07/17 04:47:09;;;;;;;4.78;1.42;;;;;;;11.97;92.14;102388.41;4990723;28;20177;-47
2022/07/17 04:49:35;;;;;;;6.35;1.95;;;;;;;11.86;91.87;102408.25;4990651;28;20228;-48
2022/07/17 04:52:00;;;;;;;7.10;1.50;;;;;;;11.88;91.94;102405.59;4990591;28;20192;-47
2022/07/17 04:54:26;;;;;;;6.45;2.00;;;;;;;11.99;92.00;102410.78;4990115;28;20220;-48
2022/07/17 04:56:51;;;;;;;7.07;1.60;;;;;;;11.94;91.58;102400.13;4990624;28;20317;-47
2022/07/17 04:59:17;;;;;;;5.35;1.85;;;;;;;11.94;91.71;102409.06;4990670;28;20283;-48
2022/07/17 05:01:42;;;;;;;10.60;1.70;;;;;;;11.89;91.85;102421.66;4990733;28;20216;-47
2022/07/17 05:04:08;;;;;;;5.55;1.80;;;;;;;11.99;92.11;102418.84;4989904;28;20236;-47
2022/07/17 05:06:33;;;;;;;7.63;1.50;;;;;;;11.89;92.50;102428.84;4994647;28;20553;-47
2022/07/17 05:08:59;;;;;;;4.25;1.52;;;;;;;11.96;92.62;102430.53;4994403;28;20222;-47
2022/07/17 05:11:24;;;;;;;6.40;1.75;;;;;;;12.06;92.36;102432.09;4994777;28;20182;-46
2022/07/17 05:13:50;;;;;;;9.80;1.60;;;;;;;12.12;92.25;102434.69;4993951;28;20245;-47
2022/07/17 05:16:15;;;;;;;8.07;2.05;;;;;;;12.13;91.63;102433.78;4994564;28;20185;-47
2022/07/17 05:18:41;;;;;;;7.80;1.77;;;;;;;12.19;91.69;102438.13;4994514;28;20397;-46
2022/07/17 05:21:06;;;;;;;6.35;1.63;;;;;;;12.18;91.58;102425.63;4994176;28;20162;-45
2022/07/17 05:23:32;;;;;;;4.38;1.52;;;;;;;12.17;91.67;102426.53;4993563;28;20248;-44
2022/07/17 05:25:57;;;;;;;3.60;1.60;;;;;;;12.35;91.67;102425.28;4994359;28;20161;-45
2022/07/17 05:28:23;;;;;;;5.47;1.50;;;;;;;12.47;91.39;102426.84;4994014;28;20177;-43
2022/07/17 05:30:48;;;;;;;3.17;1.58;;;;;;;12.28;91.31;102416.44;4994391;28;20173;-43
2022/07/17 05:33:13;;;;;;;5.13;1.63;;;;;;;12.40;91.36;102426.09;4993385;28;20260;-45
2022/07/17 05:35:39;;;;;;;3.58;1.38;;;;;;;12.48;91.23;102425.91;4994476;28;20221;-45
2022/07/17 05:38:06;;;;;;;8.85;2.00;;;;;;;12.44;91.48;102430.50;4994352;28;20252;-45
2022/07/17 05:40:31;;;;;;;4.45;1.40;;;;;;;12.55;91.39;102433.84;4992377;28;20560;-45
2022/07/17 05:42:58;;;;;;;5.97;1.63;;;;;;;12.65;91.07;102426.44;4993587;28;20189;-43
2022/07/17 05:45:23;;;;;;;4.80;1.60;;;;;;;12.90;91.03;102418.75;4993557;28;20188;-45
2022/07/17 05:47:49;;;;;;;5.30;1.45;;;;;;;13.09;90.61;102421.88;4994320;28;20623;-44
2022/07/17 05:50:14;;;;;;;6.85;1.42;;;;;;;13.01;90.08;102431.03;4994036;28;20752;-45
2022/07/17 05:52:40;;;;;;;7.22;1.88;;;;;;;13.10;89.41;102426.34;4993771;28;20177;-44
2022/07/17 05:55:06;;;;;;;4.10;1.52;;;;;;;13.07;89.51;102418.34;4993655;28;20685;-43
2022/07/17 05:57:31;;;;;;;8.32;1.73;;;;;;;13.19;89.42;102415.38;4993741;28;20170;-44
2022/07/17 05:59:56;;;;;;;2.40;1.50;;;;;;;13.51;89.00;102413.75;4994035;28;20236;-46
2022/07/17 06:02:22;;;;;;;5.28;1.67;;;;;;;13.23;88.52;102416.19;4976030;28;20178;-46
2022/07/17 06:04:47;;;;;;;5.95;1.65;;;;;;;13.42;88.53;102413.06;4993240;28;20270;-42
2022/07/17 06:07:13;;;;;;;4.85;2.00;;;;;;;13.31;88.60;102408.81;4993796;28;20264;-44
2022/07/17 06:09:38;;;;;;;7.00;1.55;;;;;;;13.71;88.65;102406.94;4993316;28;20239;-44
2022/07/17 06:12:04;;;;;;;8.18;1.73;;;;;;;13.74;87.45;102415.84;4993666;28;20276;-43
2022/07/17 06:14:29;;;;;;;7.25;1.50;;;;;;;14.00;87.10;102417.84;4992998;28;20197;-45
2022/07/17 06:16:55;;;;;;;9.48;1.85;;;;;;;14.05;86.11;102419.53;4992303;28;20229;-42
2022/07/17 06:19:20;;;;;;;5.82;1.27;;;;;;;14.33;85.30;102414.25;4993692;28;20212;-42
2022/07/17 06:21:46;;;;;;;4.40;1.25;;;;;;;14.73;83.69;102426.59;4993224;28;20236;-45
2022/07/17 06:24:11;;;;;;;8.02;1.42;;;;;;;14.61;83.55;102425.16;4992819;28;20280;-45
2022/07/17 06:26:37;;;;;;;7.88;1.90;;;;;;;14.61;83.29;102422.47;4993301;28;20241;-44
2022/07/17 06:29:02;;;;;;;8.48;1.50;;;;;;;14.73;82.72;102422.06;4993185;28;20209;-45
2022/07/17 06:31:28;;;;;;;8.82;1.45;;;;;;;14.56;82.65;102427.09;4993179;28;20185;-44
2022/07/17 06:33:53;;;;;;;5.75;1.33;;;;;;;14.30;83.34;102436.78;4992561;28;20166;-43
2022/07/17 06:36:19;;;;;;;7.53;1.63;;;;;;;14.11;84.84;102436.41;4992876;28;20275;-45
2022/07/17 06:38:44;;;;;;;3.63;1.30;;;;;;;14.37;86.00;102445.59;4993365;28;20808;-46
2022/07/17 06:41:10;;;;;;;6.28;2.20;;;;;;;14.61;85.13;102444.03;4993145;28;20249;-49
2022/07/17 06:43:35;;;;;;;8.32;4.07;;;;;;;15.10;84.34;102438.97;4992823;28;20213;-47
2022/07/17 06:46:01;;;;;;;5.82;3.28;;;;;;;15.35;84.36;102448.06;4992097;28;20258;-47
2022/07/17 06:48:26;;;;;;;5.55;1.58;;;;;;;15.50;82.64;102438.53;4992740;28;20280;-47
2022/07/17 06:50:52;;;;;;;3.95;1.50;;;;;;;15.92;80.24;102437.16;4992528;28;20705;-50
2022/07/17 06:53:17;;;;;;;5.68;1.30;;;;;;;15.88;80.42;102439.13;4992487;28;20165;-48
2022/07/17 06:55:43;;;;;;;6.40;1.60;;;;;;;16.25;79.87;102440.50;4992790;28;20205;-44
2022/07/17 06:58:08;;;;;;;5.07;1.40;;;;;;;16.13;79.34;102443.66;4992265;28;20204;-47
2022/07/17 07:00:34;;;;;;;6.13;1.50;;;;;;;15.92;79.69;102450.69;4992744;28;20201;-47
2022/07/17 07:02:59;;;;;;;5.82;1.25;;;;;;;15.39;80.34;102448.81;4991836;28;20216;-48
2022/07/17 07:05:25;;;;;;;8.40;1.77;;;;;;;15.22;81.30;102457.47;4992567;28;20196;-47
2022/07/17 07:07:50;;;;;;;10.68;1.80;;;;;;;15.33;80.75;102452.63;4992305;28;20166;-47
2022/07/17 07:10:17;;;;;;;6.50;1.77;;;;;;;15.51;80.13;102459.22;4991972;28;20193;-49
2022/07/17 07:12:42;;;;;;;8.45;1.75;;;;;;;15.71;78.53;102455.91;4992298;28;20688;-48
2022/07/17 07:15:08;;;;;;;7.40;1.75;;;;;;;16.34;77.00;102461.81;4991669;28;20192;-47
2022/07/17 07:17:35;;;;;;;6.50;1.42;;;;;;;16.80;76.60;102454.72;4992540;28;20637;-45
2022/07/17 07:20:03;;;;;;;7.20;1.50;;;;;;;16.85;74.05;102455.41;4992064;28;20212;-47
2022/07/17 07:22:29;;;;;;;7.85;1.60;;;;;;;16.83;74.02;102451.00;4991866;28;20301;-47
2022/07/17 07:24:55;;;;;;;7.13;1.50;;;;;;;17.51;72.71;102446.47;4991340;28;20264;-47
2022/07/17 07:27:20;;;;;;;7.38;1.33;;;;;;;17.72;71.20;102447.41;4991987;28;20622;-44
2022/07/17 07:29:46;;;;;;;5.32;1.33;;;;;;;18.10;70.47;102448.50;4991213;28;20597;-47
2022/07/17 07:32:11;;;;;;;5.85;1.40;;;;;;;17.85;70.96;102445.09;4990243;28;20193;-45
2022/07/17 07:34:37;;;;;;;6.03;1.88;;;;;;;18.05;69.98;102455.06;4989022;28;20617;-48
2022/07/17 07:37:02;;;;;;;6.60;1.70;;;;;;;18.33;69.49;102449.28;4990042;28;20789;-46
2022/07/17 07:39:28;;;;;;;8.57;1.60;;;;;;;18.01;69.69;102459.72;4974287;28;20201;-46
2022/07/17 07:41:54;;;;;;;5.70;1.40;;;;;;;17.75;68.92;102463.53;4991849;28;20248;-47
2022/07/17 07:44:19;;;;;;;6.20;1.30;;;;;;;18.08;68.20;102460.34;4990910;28;20213;-48
2022/07/17 07:46:45;;;;;;;5.60;1.77;;;;;;;18.37;67.54;102471.75;4992058;28;20170;-46
2022/07/17 07:49:10;;;;;;;6.70;1.42;;;;;;;18.19;68.83;102457.16;4973742;28;20256;-47
2022/07/17 07:51:36;;;;;;;4.78;1.33;;;;;;;18.03;68.41;102467.81;4989403;28;20196;-47
2022/07/17 07:54:01;;;;;;;6.05;1.52;;;;;;;18.71;66.22;102460.22;4990845;28;20314;-47
2022/07/17 07:56:27;;;;;;;5.53;1.45;;;;;;;18.35;65.87;102466.41;4990484;28;20165;-47
2022/07/17 07:58:52;;;;;;;5.72;1.60;;;;;;;18.22;67.51;102468.78;4991304;28;20277;-47
2022/07/17 08:01:18;;;;;;;7.40;1.60;;;;;;;18.91;66.83;102467.47;4991715;28;20269;-49
2022/07/17 08:03:43;;;;;;;9.65;1.40;;;;;;;19.39;65.29;102470.63;4990699;28;20211;-46
2022/07/17 08:06:09;;;;;;;7.70;1.65;;;;;;;19.57;64.95;102477.88;4991653;28;20170;-46
2022/07/17 08:08:34;;;;;;;6.95;1.40;;;;;;;19.09;65.35;102469.31;4991063;28;20205;-47
2022/07/17 08:11:00;;;;;;;4.93;1.50;;;;;;;19.44;64.56;102468.53;4990334;28;20194;-46
2022/07/17 08:13:25;;;;;;;4.85;1.33;;;;;;;18.91;65.06;102472.91;4990606;28;20245;-47
2022/07/17 08:15:51;;;;;;;6.03;1.30;;;;;;;19.28;64.93;102476.56;4991159;28;20178;-48
2022/07/17 08:18:16;;;;;;;7.63;1.40;;;;;;;19.09;64.46;102474.75;4991192;28;20165;-46
2022/07/17 08:20:43;;;;;;;6.82;1.55;;;;;;;19.47;63.32;102482.88;4991205;28;20173;-47
2022/07/17 08:23:08;;;;;;;8.05;1.17;;;;;;;19.41;64.74;102488.59;4990777;28;20764;-48
2022/07/17 08:25:35;;;;;;;5.50;1.67;;;;;;;19.83;62.81;102478.41;4973321;28;20220;-48
2022/07/17 08:28:01;;;;;;;5.70;1.58;;;;;;;19.76;61.04;102481.44;4973453;28;20305;-46
2022/07/17 08:30:26;;;;;;;9.32;1.50;;;;;;;19.92;62.17;102483.41;4973668;28;20657;-49
2022/07/17 08:32:52;;;;;;;9.45;1.52;;;;;;;20.07;60.80;102482.63;4991110;28;20157;-50
2022/07/17 08:35:17;;;;;;;8.18;1.50;;;;;;;19.82;61.01;102488.41;4989915;28;20216;-51
2022/07/17 08:37:44;;;;;;;5.45;1.50;;;;;;;20.04;60.62;102490.03;4973533;28;20517;-48
2022/07/17 08:40:16;;;;;;;4.53;1.83;;;;;;;20.32;59.99;102475.88;4990426;28;20764;-48
2022/07/17 08:42:42;;;;;;;4.15;1.33;;;;;;;20.34;60.04;102498.44;4990885;28;20249;-47
2022/07/17 08:45:09;;;;;;;5.65;1.30;;;;;;;20.41;59.56;102496.28;4990555;28;20200;-46
2022/07/17 08:47:36;;;;;;;4.30;1.10;;;;;;;20.37;60.45;102488.25;4990846;28;20173;-47
2022/07/17 08:50:02;;;;;;;8.25;1.63;;;;;;;20.54;59.14;102490.09;4990393;28;20256;-47
2022/07/17 08:52:27;;;;;;;3.90;1.30;;;;;;;20.48;58.92;102478.66;4990648;28;20185;-47
2022/07/17 08:54:53;;;;;;;3.65;1.25;;;;;;;20.54;58.04;102475.59;4988475;28;20596;-47
2022/07/17 08:57:20;;;;;;;3.67;1.30;;;;;;;20.45;59.21;102481.53;4990676;28;20157;-46
2022/07/17 08:59:47;;;;;;;4.70;1.48;;;;;;;20.85;57.44;102482.13;4990784;28;20288;-48
2022/07/17 09:02:13;;;;;;;3.28;1.20;;;;;;;20.74;58.35;102485.44;4990555;28;20171;-45
2022/07/17 09:04:39;;;;;;;4.80;1.40;;;;;;;20.56;57.08;102479.13;4989276;28;20562;-47
2022/07/17 09:07:05;;;;;;;3.10;1.17;;;;;;;20.92;57.25;102475.34;4990418;28;20173;-45
2022/07/17 09:09:33;;;;;;;4.53;1.17;;;;;;;20.67;58.19;102484.03;4990491;28;20193;-46
2022/07/17 09:12:00;;;;;;;5.55;1.45;;;;;;;20.25;59.21;102488.06;4990808;28;20181;-46
2022/07/17 09:14:40;;;;;;;2.97;1.10;;;;;;;20.81;58.18;102481.41;4990115;28;20193;-45
2022/07/17 09:17:08;;;;;;;3.45;1.40;;;;;;;20.46;58.02;102476.00;4990589;28;20205;-45
2022/07/17 09:19:42;;;;;;;3.40;1.30;;;;;;;20.82;57.55;102490.47;4988836;28;20626;-46
2022/07/17 09:22:16;;;;;;;4.20;1.23;;;;;;;20.97;56.51;102476.88;4982903;28;20192;-45
2022/07/17 09:24:56;;;;;;;5.38;1.20;;;;;;;20.80;56.46;102482.38;4970924;28;20336;-47
2022/07/17 09:27:30;;;;;;;4.55;1.23;;;;;;;21.06;58.57;102489.09;4907282;28;20730;-47
2022/07/17 09:29:59;;;;;;;8.40;1.40;;;;;;;20.95;57.60;102484.25;4950957;29;20742;-48
2022/07/17 09:32:29;;;;;;;5.03;2.03;;;;;;;21.31;56.89;102483.13;4951696;29;20175;-47
2022/07/17 09:34:57;;;;;;;4.95;1.30;;;;;;;21.11;57.32;102473.38;4951142;29;20265;-44
2022/07/17 09:37:24;;;;;;;4.10;1.27;;;;;;;21.74;56.91;102485.25;4951597;28;20659;-45
2022/07/17 09:39:53;;;;;;;3.67;1.20;;;;;;;21.40;55.29;102485.31;4951798;29;20270;-47
2022/07/17 09:42:23;;;;;;;3.95;1.40;;;;;;;20.71;58.04;102482.91;4951324;29;20178;-48
2022/07/17 09:44:59;;;;;;;3.17;1.05;;;;;;;20.85;57.99;102474.81;4951248;28;20190;-46
2022/07/17 09:47:26;;;;;;;5.82;1.20;;;;;;;21.22;55.96;102485.50;4951481;29;20167;-45
2022/07/17 09:49:56;;;;;;;4.15;1.02;;;;;;;21.85;56.11;102481.88;4951740;29;20213;-49
2022/07/17 09:52:29;;;;;;;3.90;1.15;;;;;;;21.05;57.17;102483.72;4954754;29;20219;-48
2022/07/17 09:54:56;;;;;;;3.50;1.08;;;;;;;21.33;56.30;102477.59;4954506;29;20174;-47
2022/07/17 09:57:27;;;;;;;4.88;1.20;;;;;;;21.37;57.24;102474.59;4954820;29;20178;-46
2022/07/17 09:59:55;;;;;;;7.03;1.13;;;;;;;21.76;55.27;102472.41;4954843;29;20282;-46
2022/07/17 10:02:21;;;;;;;5.20;1.25;;;;;;;21.97;56.04;102470.22;4955092;29;20174;-48
2022/07/17 10:04:48;;;;;;;3.13;1.00;;;;;;;21.42;56.35;102474.38;4954807;29;20190;-46
2022/07/17 10:07:14;;;;;;;2.70;1.10;;;;;;;21.62;55.50;102486.84;4954623;29;20201;-45
2022/07/17 10:09:40;;;;;;;4.72;1.10;;;;;;;21.72;56.65;102479.88;4954746;29;20238;-45
2022/07/17 10:12:07;;;;;;;3.78;1.17;;;;;;;21.32;56.92;102476.72;4954597;29;20228;-46
2022/07/17 10:14:34;;;;;;;3.38;1.15;;;;;;;21.55;57.24;102477.25;4954237;29;20171;-45
2022/07/17 10:17:10;;;;;;;5.85;1.42;;;;;;;21.19;57.49;102473.81;4954665;29;20194;-45
2022/07/17 10:19:47;;;;;;;3.05;1.00;;;;;;;20.80;57.00;102473.34;4954452;29;20765;-46
2022/07/17 10:22:13;;;;;;;3.90;1.13;;;;;;;20.55;57.01;102482.78;4954620;29;20549;-47
2022/07/17 10:24:46;;;;;;;3.97;1.27;;;;;;;20.47;58.10;102474.19;4953700;29;20225;-44
2022/07/17 10:27:28;;;;;;;4.13;0.90;;;;;;;21.20;57.30;102477.41;4954586;29;20178;-46
2022/07/17 10:30:03;;;;;;;3.55;1.33;;;;;;;21.26;56.30;102478.94;4954379;29;20218;-45
2022/07/17 10:32:30;;;;;;;4.00;1.30;;;;;;;21.02;58.01;102476.63;4954401;29;20178;-44
2022/07/17 10:35:03;;;;;;;2.42;1.15;;;;;;;20.43;58.88;102481.63;4936777;29;20218;-47
2022/07/17 10:37:38;;;;;;;4.13;0.90;;;;;;;20.80;57.45;102474.22;4954282;29;20269;-46
2022/07/17 10:40:28;;;;;;;3.88;1.30;;;;;;;21.25;56.01;102471.69;4954461;28;20271;-47
2022/07/17 10:43:01;;;;;;;2.00;1.00;;;;;;;21.76;55.82;102476.00;4954058;29;20560;-44
2022/07/17 10:45:35;;;;;;;4.50;1.02;;;;;;;22.05;54.39;102462.44;4954321;29;20698;-45
2022/07/17 10:48:16;;;;;;;4.07;1.20;;;;;;;21.92;54.94;102464.16;4953974;28;20181;-47
2022/07/17 10:50:45;;;;;;;2.90;1.05;;;;;;;21.44;54.59;102463.38;4954002;29;20178;-45
2022/07/17 10:53:23;;;;;;;3.67;1.02;;;;;;;21.86;55.60;102473.59;4953490;28;20187;-46
2022/07/17 10:56:04;;;;;;;1.88;0.90;;;;;;;21.46;54.09;102462.31;4954133;29;20520;-45
2022/07/17 10:58:37;;;;;;;4.88;1.00;;;;;;;21.26;55.67;102463.44;4953846;29;20297;-44
2022/07/17 11:01:21;;;;;;;5.28;1.23;;;;;;;20.86;55.78;102465.69;4953724;29;20269;-46
2022/07/17 11:03:49;;;;;;;3.22;1.00;;;;;;;20.83;57.30;102460.41;4952604;28;20552;-47
2022/07/17 11:06:19;;;;;;;3.85;0.93;;;;;;;21.53;55.95;102452.78;4953782;29;20167;-46
2022/07/17 11:08:56;;;;;;;4.55;1.30;;;;;;;22.17;54.20;102449.88;4953881;29;20293;-45
2022/07/17 11:11:54;;;;;;;4.78;0.90;;;;;;;22.60;53.88;102445.38;4953672;29;20170;-47
2022/07/17 11:14:20;;;;;;;2.20;0.90;;;;;;;22.07;53.26;102452.31;4910652;29;20233;-46
2022/07/17 11:16:54;;;;;;;2.38;0.80;;;;;;;22.50;51.52;102444.25;4953771;29;20555;-46
2022/07/17 11:19:43;;;;;;;2.28;0.93;;;;;;;22.32;52.12;102450.84;4953573;29;20573;-45
2022/07/17 11:22:11;;;;;;;2.90;1.17;;;;;;;22.06;52.41;102444.22;4953490;28;20185;-44
2022/07/17 11:24:43;;;;;;;2.75;1.00;;;;;;;22.38;53.98;102442.25;4952521;29;20326;-46